Time;durP1;ratioP1;P1;durP2;ratioP2;P2;SDS_P1;SDS_P2;PMS_P1;PMS_P2;Temp;Humidity;BMP_temperature;BMP_pressure;BME280_temperature;BME280_humidity;BME280_pressure;Samples;Min_cycle;Max_cycle;Signal;HPM_P1;HPM_P2
2023/10/24 00:01:28;;;;;;;10.82;3.40;;;13.30;99.90;;;13.48;83.27;99305.19;5104517;28;20044;-81
2023/10/24 00:03:55;;;;;;;12.68;3.53;;;13.30;99.90;;;13.51;82.78;99303.84;5103779;28;20047;-81
2023/10/24 00:06:24;;;;;;;8.27;3.40;;;13.30;99.90;;;13.47;82.76;99308.09;5102726;28;20052;-81
2023/10/24 00:08:52;;;;;;;7.40;3.22;;;13.30;99.90;;;13.51;83.15;99299.28;5101365;28;20047;-81
2023/10/24 00:11:19;;;;;;;7.72;3.15;;;13.30;99.90;;;13.52;83.15;99298.25;5086533;28;20044;-81
2023/10/24 00:13:47;;;;;;;12.38;3.88;;;13.30;99.90;;;13.49;83.33;99301.44;5106156;28;20089;-81
2023/10/24 00:16:14;;;;;;;7.30;3.10;;;13.30;99.90;;;13.50;83.47;99300.38;5100770;28;20513;-81
2023/10/24 00:18:41;;;;;;;8.68;3.20;;;13.30;99.90;;;13.52;83.46;99305.47;5100043;28;20044;-81
2023/10/24 00:21:09;;;;;;;11.90;3.65;;;13.30;99.90;;;13.49;83.53;99305.97;5099706;28;20066;-81
2023/10/24 00:23:38;;;;;;;10.15;3.40;;;13.30;99.90;;;13.46;83.06;99295.78;5101255;28;20067;-81
2023/10/24 00:26:05;;;;;;;14.30;3.20;;;13.40;99.90;;;13.48;83.19;99304.38;5100635;28;20044;-81
2023/10/24 00:28:33;;;;;;;9.00;3.30;;;13.40;99.90;;;13.46;83.17;99290.44;5098772;28;20499;-81
2023/10/24 00:31:00;;;;;;;10.52;3.10;;;13.40;99.90;;;13.48;83.55;99289.13;5100072;28;20044;-81
2023/10/24 00:33:28;;;;;;;10.07;3.22;;;13.40;99.90;;;13.49;83.37;99295.28;5100581;28;20507;-81
2023/10/24 00:35:55;;;;;;;7.70;3.67;;;13.40;99.90;;;13.52;83.30;99292.09;5098913;28;20514;-81
2023/10/24 00:38:23;;;;;;;11.70;3.60;;;13.30;99.90;;;13.50;83.31;99284.28;5099654;28;20075;-81
2023/10/24 00:40:52;;;;;;;11.00;3.30;;;13.40;99.90;;;13.51;nan;99277.06;5099299;28;20070;-81
2023/10/24 00:43:19;;;;;;;5.57;2.78;;;13.40;99.90;;;13.48;83.22;99283.75;5099818;28;20040;-81
2023/10/24 00:45:47;;;;;;;12.05;3.40;;;13.40;99.90;;;13.46;83.37;99277.84;5098509;28;20120;-81
2023/10/24 00:48:14;;;;;;;6.82;2.83;;;13.40;99.90;;;13.51;83.50;99275.19;5081659;28;20054;-81
2023/10/24 00:50:42;;;;;;;8.60;3.25;;;13.40;99.90;;;13.51;83.80;99280.53;5098089;28;20469;-81
2023/10/24 00:53:09;;;;;;;9.13;3.50;;;13.40;99.90;;;13.45;82.71;99288.81;5098738;28;20117;-81
2023/10/24 00:55:39;;;;;;;6.45;3.38;;;13.40;99.90;;;13.45;82.71;99281.59;5108001;28;20048;-81
2023/10/24 00:58:10;;;;;;;7.00;3.03;;;13.40;99.90;;;13.47;82.42;99282.16;5119010;28;20048;-81
2023/10/24 01:00:39;;;;;;;9.95;3.10;;;13.50;99.90;;;13.49;82.63;99273.84;5119023;28;20044;-81
2023/10/24 01:03:06;;;;;;;6.72;3.33;;;13.50;99.90;;;13.46;82.87;99287.75;5119432;28;20120;-82
2023/10/24 01:05:35;;;;;;;7.10;2.88;;;13.50;99.90;;;13.49;82.78;99269.28;5114333;28;20040;-82
2023/10/24 01:08:03;;;;;;;8.43;2.80;;;13.50;99.90;;;13.55;83.02;99265.56;5100381;28;20105;-81
2023/10/24 01:10:31;;;;;;;11.05;3.17;;;13.50;99.90;;;13.54;82.36;99277.34;5103627;28;20044;-81
2023/10/24 01:12:58;;;;;;;7.80;3.08;;;13.50;99.90;;;13.53;82.59;99277.63;5104702;28;20105;-81
2023/10/24 01:15:27;;;;;;;11.48;3.00;;;13.50;99.90;;;13.53;82.63;99285.66;5085849;28;20048;-81
2023/10/24 01:17:54;;;;;;;8.63;3.53;;;13.50;99.90;;;13.51;82.04;99283.22;5103919;28;20127;-82
2023/10/24 01:20:22;;;;;;;9.70;2.75;;;13.50;99.90;;;13.55;82.21;99288.88;5086023;28;20078;-82
2023/10/24 01:22:51;;;;;;;10.07;3.17;;;13.50;99.90;;;13.58;82.52;99288.38;5103158;28;20052;-81
2023/10/24 01:25:18;;;;;;;11.32;2.92;;;13.40;99.90;;;13.59;82.68;99298.81;5103494;28;20039;-81
2023/10/24 01:27:53;;;;;;;8.55;2.90;;;13.50;99.90;;;13.54;82.66;99289.94;5087060;28;20098;-81
2023/10/24 01:30:21;;;;;;;9.20;3.03;;;13.50;99.90;;;13.53;82.08;99294.50;5103366;28;20074;-81
2023/10/24 01:32:49;;;;;;;7.35;3.00;;;13.50;99.90;;;13.55;82.41;99286.19;5086392;28;20115;-81
2023/10/24 01:35:16;;;;;;;5.93;2.42;;;13.50;99.90;;;13.57;82.30;99289.44;5102701;28;20062;-81
2023/10/24 01:37:44;;;;;;;9.20;2.75;;;13.50;99.90;;;13.61;82.55;99280.59;5105179;28;20388;-81
2023/10/24 01:40:13;;;;;;;6.10;2.70;;;13.50;99.90;;;13.64;82.79;99277.41;5123247;28;20067;-81
2023/10/24 01:42:41;;;;;;;10.48;3.03;;;13.50;99.90;;;13.62;82.24;99274.19;5122636;28;20571;-81
2023/10/24 01:45:08;;;;;;;6.82;3.00;;;13.50;99.90;;;13.53;82.11;99286.47;5123912;28;20044;-81
2023/10/24 01:47:36;;;;;;;8.68;2.63;;;13.50;99.90;;;13.55;82.04;99287.00;5124068;28;20050;-81
2023/10/24 01:50:04;;;;;;;6.90;2.95;;;13.50;99.90;;;13.57;82.12;99276.84;5124264;28;20114;-81
2023/10/24 01:52:32;;;;;;;6.22;2.67;;;13.50;99.90;;;13.59;82.37;99279.25;5124522;28;20043;-81
2023/10/24 01:55:00;;;;;;;7.40;2.88;;;13.50;99.90;;;13.58;82.39;99286.50;5105717;28;20088;-81
2023/10/24 01:57:29;;;;;;;5.03;2.60;;;13.50;99.90;;;13.59;82.06;99289.97;5105241;28;20396;-81
2023/10/24 01:59:56;;;;;;;6.32;2.72;;;13.50;99.90;;;13.62;82.61;99284.09;5122541;28;20073;-81
2023/10/24 02:02:26;;;;;;;9.15;3.33;;;13.50;99.90;;;13.61;82.60;99277.09;5123880;28;20486;-81
2023/10/24 02:04:53;;;;;;;9.02;2.85;;;13.50;99.90;;;13.62;82.84;99273.38;5105410;28;20503;-81
2023/10/24 02:07:21;;;;;;;7.70;2.97;;;13.50;99.90;;;13.65;82.94;99278.19;5103632;28;20071;-81
2023/10/24 02:09:48;;;;;;;11.13;3.25;;;13.50;99.90;;;13.67;83.07;99281.44;5101644;28;20052;-81
2023/10/24 02:12:15;;;;;;;6.30;2.65;;;13.50;99.90;;;13.68;83.21;99266.19;5121888;28;20082;-81
2023/10/24 02:14:44;;;;;;;7.38;2.97;;;13.50;99.90;;;13.69;82.82;99273.13;5087595;28;20047;-81
2023/10/24 02:17:12;;;;;;;7.53;2.65;;;13.50;99.90;;;13.68;82.77;99276.91;5104316;28;20131;-81
2023/10/24 02:19:39;;;;;;;8.32;3.25;;;13.50;99.90;;;13.67;82.61;99273.41;5103246;28;20059;-81
2023/10/24 02:22:06;;;;;;;8.40;3.22;;;13.50;99.90;;;13.62;82.10;99268.84;5086836;28;20090;-81
2023/10/24 02:24:34;;;;;;;5.13;2.72;;;13.50;99.90;;;13.65;82.73;99272.84;5103668;28;20089;-81
2023/10/24 02:27:02;;;;;;;9.68;2.97;;;13.50;99.90;;;13.64;82.03;99282.75;5086668;28;20048;-81
2023/10/24 02:29:32;;;;;;;10.90;3.40;;;13.50;99.90;;;13.68;82.33;99279.56;5104078;28;20044;-81
2023/10/24 02:32:02;;;;;;;7.05;3.10;;;13.50;99.90;;;13.61;82.34;99285.16;5120424;28;20059;-81
2023/10/24 02:34:30;;;;;;;12.05;3.25;;;13.50;99.90;;;13.59;82.28;99295.31;5103255;28;20047;-81
2023/10/24 02:36:57;;;;;;;7.40;2.72;;;13.50;99.90;;;13.60;82.53;99288.91;5069556;28;20039;-81
2023/10/24 02:39:25;;;;;;;6.82;3.10;;;13.50;99.90;;;13.61;82.83;99287.81;5087460;28;20047;-82
2023/10/24 02:41:52;;;;;;;4.70;2.40;;;13.50;99.90;;;13.61;82.91;99298.53;5120756;28;20039;-82
2023/10/24 02:44:20;;;;;;;7.60;2.72;;;13.50;99.90;;;13.64;82.94;99298.84;5123137;28;20077;-82
2023/10/24 02:46:48;;;;;;;4.80;2.50;;;13.50;99.90;;;13.65;83.18;99292.41;5122123;28;20559;-81
2023/10/24 02:49:16;;;;;;;4.80;2.13;;;13.50;99.90;;;13.64;83.42;99296.16;5121796;28;20040;-81
2023/10/24 02:51:44;;;;;;;4.88;2.22;;;13.50;99.90;;;13.65;82.92;99299.63;5104629;28;20039;-81
2023/10/24 02:54:11;;;;;;;6.32;2.72;;;13.50;99.90;;;13.65;83.12;99305.00;5104955;28;20078;-81
2023/10/24 02:56:39;;;;;;;5.43;2.35;;;13.50;99.90;;;13.67;83.28;99318.97;5123232;28;20054;-81
2023/10/24 02:59:07;;;;;;;6.13;2.80;;;13.50;99.90;;;13.63;83.15;99323.22;5121044;28;20074;-81
2023/10/24 03:01:34;;;;;;;6.43;2.78;;;13.50;99.90;;;13.64;83.59;99314.09;5121824;28;20464;-81
2023/10/24 03:04:01;;;;;;;7.57;3.00;;;13.50;99.90;;;13.67;83.75;99320.84;5123759;28;20043;-81
2023/10/24 03:06:30;;;;;;;7.75;2.80;;;13.50;99.90;;;13.63;83.60;99323.22;5111775;28;20061;-81
2023/10/24 03:08:58;;;;;;;8.13;2.50;;;13.40;99.90;;;13.66;83.58;99303.94;5101560;28;20052;-81
2023/10/24 03:11:26;;;;;;;5.72;2.97;;;13.50;99.90;;;13.65;83.50;99319.19;5101266;28;20039;-81
2023/10/24 03:13:55;;;;;;;7.00;3.17;;;13.40;99.90;;;13.61;83.18;99320.78;5102376;28;20066;-81
2023/10/24 03:16:22;;;;;;;7.93;3.35;;;13.40;99.90;;;13.58;82.94;99326.66;5102727;28;20063;-81
2023/10/24 03:18:51;;;;;;;6.22;3.50;;;13.40;99.90;;;13.59;83.14;99298.81;5105185;28;20034;-81
2023/10/24 03:21:20;;;;;;;8.95;3.40;;;13.50;99.90;;;13.62;nan;99292.94;5122589;28;20035;-81
2023/10/24 03:23:49;;;;;;;7.32;3.55;;;13.50;99.90;;;13.65;83.31;99305.81;5138999;27;20040;-82
2023/10/24 03:26:17;;;;;;;8.57;3.38;;;13.50;99.90;;;13.67;83.44;99313.59;5122849;28;20056;-82
2023/10/24 03:28:45;;;;;;;6.80;3.38;;;13.50;99.90;;;13.69;83.46;99299.94;5120457;28;20506;-82
2023/10/24 03:31:12;;;;;;;6.90;3.30;;;13.50;99.90;;;13.69;83.58;99300.75;5122445;28;20044;-82
2023/10/24 03:33:39;;;;;;;9.55;3.63;;;13.50;99.90;;;13.68;83.28;99320.56;5122000;28;20055;-82
2023/10/24 03:36:13;;;;;;;7.60;3.50;;;13.50;99.90;;;13.69;83.18;99311.47;5122420;28;20065;-82
2023/10/24 03:38:40;;;;;;;7.00;3.20;;;13.50;99.90;;;13.69;83.00;99313.34;5120875;28;20562;-82
2023/10/24 03:41:09;;;;;;;8.65;3.58;;;13.50;99.90;;;13.67;82.70;99316.28;5103267;28;20047;-81
2023/10/24 03:43:39;;;;;;;8.23;3.47;;;13.50;99.90;;;13.69;82.81;99316.00;5120870;28;20418;-81
2023/10/24 03:46:07;;;;;;;9.43;3.45;;;13.50;99.90;;;13.68;83.12;99293.78;5121857;28;20044;-81
2023/10/24 03:48:34;;;;;;;8.20;3.35;;;13.50;99.90;;;13.68;83.22;99312.53;5120286;28;20042;-81
2023/10/24 03:51:02;;;;;;;8.32;3.28;;;13.40;99.90;;;13.69;83.42;99319.50;5119848;28;20062;-81
2023/10/24 03:53:29;;;;;;;9.25;3.70;;;13.50;99.90;;;13.69;83.05;99302.63;5122174;28;20048;-81
2023/10/24 03:55:58;;;;;;;10.68;3.90;;;13.40;99.90;;;13.62;82.74;99302.84;5120605;28;20051;-81
2023/10/24 03:58:29;;;;;;;8.27;3.53;;;13.40;99.90;;;13.62;83.25;99310.91;5120787;28;20043;-81
2023/10/24 04:00:56;;;;;;;7.30;3.80;;;13.40;99.90;;;13.61;82.88;99302.03;5105296;28;20040;-81
2023/10/24 04:03:23;;;;;;;7.68;3.70;;;13.40;99.90;;;13.62;83.29;99287.59;5099738;28;20380;-81
2023/10/24 04:05:51;;;;;;;6.53;3.10;;;13.40;99.90;;;13.62;82.93;99292.13;5104333;28;20580;-82
2023/10/24 04:08:18;;;;;;;6.32;3.13;;;13.40;99.90;;;13.62;82.82;99302.84;5119388;28;20046;-82
2023/10/24 04:10:46;;;;;;;6.32;3.40;;;13.40;99.90;;;13.63;83.14;99299.91;5119474;28;20044;-82
2023/10/24 04:13:13;;;;;;;6.72;2.90;;;13.40;99.90;;;13.64;82.86;99298.03;5120471;28;20039;-85
2023/10/24 04:15:42;;;;;;;7.05;2.95;;;13.40;99.90;;;13.63;82.76;99304.47;5115090;28;20117;-85
2023/10/24 04:18:10;;;;;;;5.75;2.58;;;13.40;99.90;;;13.62;82.63;99305.53;5116422;28;20043;-84
2023/10/24 04:20:42;;;;;;;5.05;3.00;;;13.40;99.90;;;13.61;82.70;99302.03;5115859;28;20460;-84
2023/10/24 04:23:14;;;;;;;4.90;2.33;;;13.40;99.90;;;13.59;82.84;99303.38;5099165;28;20448;-85
2023/10/24 04:25:45;;;;;;;4.80;2.10;;;13.40;99.90;;;13.58;82.51;99293.72;5099938;28;20048;-84
2023/10/24 04:28:13;;;;;;;10.23;2.27;;;13.40;99.90;;;13.58;82.62;99280.31;5099529;28;20124;-84
2023/10/24 04:30:43;;;;;;;4.63;1.90;;;13.40;99.90;;;13.57;82.21;99289.44;5098238;28;20040;-84
2023/10/24 04:33:10;;;;;;;5.43;2.20;;;13.30;99.90;;;13.56;82.07;99285.94;5100671;28;20044;-84
2023/10/24 04:35:43;;;;;;;4.75;1.60;;;13.40;99.90;;;13.56;81.95;99287.81;5081234;28;20040;-84
2023/10/24 04:38:11;;;;;;;4.90;1.70;;;13.40;99.90;;;13.56;81.85;99296.63;5098781;28;20123;-84
2023/10/24 04:40:39;;;;;;;4.38;1.70;;;13.30;99.90;;;13.55;81.61;99304.94;5082995;28;20399;-84
2023/10/24 04:43:06;;;;;;;5.50;1.70;;;13.30;99.90;;;13.57;81.75;99308.19;5098663;28;20391;-84
2023/10/24 04:45:35;;;;;;;3.78;1.45;;;13.30;99.90;;;13.54;81.76;99308.69;5096763;28;20469;-84
2023/10/24 04:48:05;;;;;;;3.47;1.73;;;13.30;99.90;;;13.55;81.32;99296.91;5100414;28;20044;-84
2023/10/24 04:50:38;;;;;;;4.18;1.60;;;13.30;99.90;;;13.54;81.30;99295.31;5097152;28;20036;-85
2023/10/24 04:53:06;;;;;;;3.35;1.60;;;13.30;99.90;;;13.57;81.79;99311.66;5099136;28;20036;-83
2023/10/24 04:55:35;;;;;;;5.40;1.50;;;13.30;99.90;;;13.57;81.86;99311.66;5114593;28;20097;-84
2023/10/24 04:58:05;;;;;;;3.58;1.60;;;13.30;99.90;;;13.53;81.40;99305.22;5096123;28;20041;-84
2023/10/24 05:00:33;;;;;;;3.42;1.80;;;13.30;99.90;;;13.49;81.79;99306.78;5095412;28;20415;-84
2023/10/24 05:03:01;;;;;;;4.95;1.58;;;13.30;99.90;;;13.52;81.71;99300.13;5092527;28;20467;-84
2023/10/24 05:05:30;;;;;;;5.85;2.13;;;13.30;99.90;;;13.53;82.13;99293.69;5093663;28;20453;-85
2023/10/24 05:08:06;;;;;;;6.40;1.83;;;13.30;99.90;;;13.55;81.93;99296.91;5096731;28;20071;-86
2023/10/24 05:10:34;;;;;;;4.57;1.77;;;13.30;99.90;;;13.56;81.95;99290.47;5116375;28;20061;-84
2023/10/24 05:13:02;;;;;;;6.90;1.95;;;13.30;99.90;;;13.50;81.41;99292.31;5115210;28;20047;-84
2023/10/24 05:15:30;;;;;;;3.92;1.70;;;13.30;99.90;;;13.51;81.88;99293.94;5098055;28;20605;-84
2023/10/24 05:17:58;;;;;;;3.72;1.70;;;13.30;99.90;;;13.49;81.25;99292.59;5076934;28;20052;-84
2023/10/24 05:20:26;;;;;;;4.90;2.13;;;13.30;99.90;;;13.45;81.80;99297.66;5107069;28;20148;-86
2023/10/24 05:22:55;;;;;;;5.63;1.63;;;13.20;99.90;;;13.38;81.45;99286.38;5116452;28;20043;-84
2023/10/24 05:25:22;;;;;;;4.20;1.85;;;13.20;99.90;;;13.44;81.81;99284.53;5119054;28;20048;-83
2023/10/24 05:27:50;;;;;;;3.92;1.65;;;13.20;99.90;;;13.46;81.87;99288.56;5102110;28;20044;-83
2023/10/24 05:30:17;;;;;;;5.15;1.50;;;13.20;99.90;;;13.48;81.85;99291.00;5117949;28;20055;-83
2023/10/24 05:32:45;;;;;;;4.28;1.58;;;13.20;99.90;;;13.48;82.20;99281.06;5116279;28;20052;-83
2023/10/24 05:35:12;;;;;;;3.67;1.50;;;13.30;99.90;;;13.53;81.85;99280.31;5116458;28;20093;-85
2023/10/24 05:37:41;;;;;;;3.10;1.42;;;13.30;99.90;;;13.50;81.77;99283.47;5112387;28;20093;-84
2023/10/24 05:40:12;;;;;;;5.25;1.40;;;13.20;99.90;;;13.51;81.68;99285.09;5113522;28;20075;-85
2023/10/24 05:42:41;;;;;;;4.22;1.52;;;13.30;99.90;;;13.44;80.71;99285.34;5115531;28;20044;-83
2023/10/24 05:45:10;;;;;;;3.15;1.45;;;13.20;99.90;;;13.44;80.87;99282.66;5088338;28;20078;-83
2023/10/24 05:47:40;;;;;;;6.68;1.50;;;13.20;99.90;;;13.37;80.34;99290.09;5103576;28;20044;-83
2023/10/24 05:50:10;;;;;;;3.78;1.60;;;13.20;99.90;;;13.37;80.30;99296.28;5103812;28;20469;-82
2023/10/24 05:52:38;;;;;;;9.73;1.98;;;13.20;99.90;;;13.32;80.01;99304.28;5104720;28;20044;-82
2023/10/24 05:55:07;;;;;;;5.35;1.65;;;13.20;99.90;;;13.34;80.14;99304.03;5104282;28;20054;-83
2023/10/24 05:57:36;;;;;;;5.55;2.03;;;13.10;99.90;;;13.28;79.54;99316.56;5105831;28;20076;-83
2023/10/24 06:00:07;;;;;;;3.38;1.60;;;13.10;99.90;;;13.31;80.12;99310.69;5106853;28;20047;-82
2023/10/24 06:02:37;;;;;;;6.30;1.70;;;13.20;99.90;;;13.35;80.22;99317.16;5108051;28;20107;-82
2023/10/24 06:05:05;;;;;;;5.50;1.80;;;13.20;99.90;;;13.35;79.71;99309.09;5108086;28;20056;-82
2023/10/24 06:07:32;;;;;;;5.35;1.70;;;13.20;99.90;;;13.35;80.40;99294.91;5106785;28;20093;-83
2023/10/24 06:10:00;;;;;;;6.82;1.60;;;13.20;99.90;;;13.36;80.33;99297.31;5106958;28;20040;-83
2023/10/24 06:12:30;;;;;;;4.68;1.70;;;13.20;99.90;;;13.31;78.77;99285.78;5106134;28;20044;-83
2023/10/24 06:14:59;;;;;;;3.30;1.60;;;13.10;99.90;;;13.29;79.21;99286.03;5108303;28;20100;-83
2023/10/24 06:17:27;;;;;;;5.57;1.67;;;13.10;99.90;;;13.29;79.30;99280.69;5108189;28;20047;-82
2023/10/24 06:19:57;;;;;;;5.00;1.52;;;13.10;99.90;;;13.32;79.63;99285.53;5106713;28;20051;-84
2023/10/24 06:22:28;;;;;;;5.20;1.50;;;13.10;99.90;;;13.32;79.56;99274.84;5090098;28;20044;-84
2023/10/24 06:24:56;;;;;;;6.17;1.40;;;13.10;99.90;;;13.34;79.56;99266.53;5106678;28;20526;-82
2023/10/24 06:27:23;;;;;;;5.43;1.40;;;13.10;99.90;;;13.35;79.65;99279.66;5107258;28;20293;-82
2023/10/24 06:29:51;;;;;;;5.93;1.33;;;13.20;99.90;;;13.38;79.74;99273.00;5106548;28;20036;-82
2023/10/24 06:32:20;;;;;;;4.82;1.70;;;13.10;99.90;;;13.39;79.68;99270.03;5106873;28;20392;-82
2023/10/24 06:34:47;;;;;;;5.13;1.60;;;13.20;99.90;;;13.40;79.68;99270.84;5108245;28;20559;-82
2023/10/24 06:37:17;;;;;;;4.93;1.60;;;13.20;99.90;;;13.38;79.12;99267.63;5106399;28;20044;-82
2023/10/24 06:39:44;;;;;;;4.65;2.08;;;13.10;99.90;;;13.36;78.86;99278.56;5106995;28;20036;-82
2023/10/24 06:42:12;;;;;;;6.57;1.50;;;13.10;99.90;;;13.32;78.48;99280.19;5107387;28;20044;-82
2023/10/24 06:44:40;;;;;;;4.93;1.60;;;13.10;99.90;;;13.37;79.00;99277.53;5107339;28;20078;-82
2023/10/24 06:47:08;;;;;;;4.78;1.63;;;13.20;99.90;;;13.38;79.25;99284.50;5088507;28;20075;-82
2023/10/24 06:49:38;;;;;;;5.47;1.63;;;13.20;99.90;;;13.39;79.13;99279.94;5107140;28;20060;-82
2023/10/24 06:52:06;;;;;;;8.27;1.88;;;13.20;99.90;;;13.40;79.46;99281.56;5106455;28;20070;-82
2023/10/24 06:54:34;;;;;;;5.18;1.77;;;13.20;99.90;;;13.42;79.62;99300.03;5106360;28;20050;-82
2023/10/24 06:57:01;;;;;;;5.18;1.63;;;13.20;99.90;;;13.42;80.05;99290.16;5103786;28;20073;-83
2023/10/24 06:59:29;;;;;;;4.18;1.60;;;13.20;99.90;;;13.37;79.89;99282.91;5085375;28;20075;-83
2023/10/24 07:01:57;;;;;;;7.97;1.90;;;13.20;99.90;;;13.38;79.51;99281.03;5087266;28;20040;-82
2023/10/24 07:04:24;;;;;;;3.58;1.52;;;13.20;99.90;;;13.39;79.78;99283.44;5086493;28;20079;-82
2023/10/24 07:06:53;;;;;;;5.43;1.63;;;13.20;99.90;;;13.44;79.95;99285.34;5092701;28;20092;-82
2023/10/24 07:09:20;;;;;;;6.22;1.38;;;13.20;99.90;;;13.45;79.79;99272.75;5088683;28;20071;-82
2023/10/24 07:11:47;;;;;;;4.45;1.50;;;13.20;99.90;;;13.45;79.60;99275.41;5105352;28;20055;-82
2023/10/24 07:14:15;;;;;;;6.15;1.67;;;13.20;99.90;;;13.41;79.35;99261.72;5088575;28;20047;-83
2023/10/24 07:16:43;;;;;;;4.07;1.20;;;13.20;99.90;;;13.44;79.41;99263.09;5106224;28;20043;-83
2023/10/24 07:19:11;;;;;;;4.28;1.60;;;13.20;99.90;;;13.44;79.20;99255.88;5105246;28;20066;-83
2023/10/24 07:21:38;;;;;;;4.30;1.50;;;13.20;99.90;;;13.47;79.42;99271.44;5106766;28;20107;-82
2023/10/24 07:24:08;;;;;;;4.50;1.70;;;13.20;99.90;;;13.48;79.49;99273.03;5088538;28;20174;-82
2023/10/24 07:26:35;;;;;;;3.28;1.50;;;13.30;99.90;;;13.43;78.30;99272.22;5106852;28;20070;-82
2023/10/24 07:29:03;;;;;;;5.65;1.65;;;13.20;99.90;;;13.41;78.20;99285.84;5098094;28;20062;-82
2023/10/24 07:31:30;;;;;;;4.28;1.30;;;13.20;99.90;;;13.42;78.30;99279.44;5105512;28;20052;-82
2023/10/24 07:33:58;;;;;;;3.80;1.58;;;13.20;99.90;;;13.39;78.30;99280.75;5106875;28;20106;-82
2023/10/24 07:36:30;;;;;;;3.60;1.33;;;13.20;99.90;;;13.45;78.72;99278.91;5104948;28;20048;-82
2023/10/24 07:39:00;;;;;;;5.93;1.35;;;13.30;99.90;;;13.47;78.49;99278.63;5103514;28;20044;-82
2023/10/24 07:41:29;;;;;;;4.05;1.50;;;13.30;99.90;;;13.47;78.63;99276.78;5105771;28;20066;-83
2023/10/24 07:43:57;;;;;;;3.97;1.20;;;13.30;99.90;;;13.38;77.35;99268.44;5105226;28;20082;-82
2023/10/24 07:46:25;;;;;;;3.25;1.10;;;13.20;99.90;;;13.38;78.28;99267.63;5104309;28;20070;-82
2023/10/24 07:48:52;;;;;;;3.50;1.40;;;13.20;99.90;;;13.38;78.00;99263.06;5104790;28;20083;-82
2023/10/24 07:51:20;;;;;;;5.75;1.33;;;13.20;99.90;;;13.37;76.98;99269.50;5087703;28;20044;-82
2023/10/24 07:53:47;;;;;;;4.65;1.60;;;13.20;99.90;;;13.40;77.32;99270.84;5104130;28;20044;-82
2023/10/24 07:56:15;;;;;;;3.72;1.10;;;13.30;99.90;;;13.35;76.46;99279.66;5104799;28;20040;-83
2023/10/24 07:58:44;;;;;;;6.82;1.35;;;13.20;99.90;;;13.28;76.53;99286.31;5086923;28;20048;-82
2023/10/24 08:01:11;;;;;;;2.92;1.27;;;13.20;99.90;;;13.29;76.61;99280.69;5088100;28;20044;-82
2023/10/24 08:03:39;;;;;;;3.58;1.10;;;13.20;99.90;;;13.32;76.96;99284.72;5104522;28;20070;-82
2023/10/24 08:06:07;;;;;;;4.30;1.30;;;13.20;99.90;;;13.34;77.03;99286.06;5105016;28;20051;-82
2023/10/24 08:08:36;;;;;;;3.05;1.33;;;13.20;99.90;;;13.38;76.27;99286.38;5103918;28;20043;-82
2023/10/24 08:11:03;;;;;;;2.53;1.08;;;13.20;99.90;;;13.34;76.11;99290.63;5105592;28;20048;-82
2023/10/24 08:13:31;;;;;;;3.08;1.25;;;13.20;99.90;;;13.38;76.64;99286.38;5105239;28;20071;-82
2023/10/24 08:16:01;;;;;;;4.85;1.30;;;13.30;99.90;;;13.39;77.15;99293.34;5105690;28;20054;-82
2023/10/24 08:18:29;;;;;;;3.80;1.10;;;13.30;99.90;;;13.42;77.68;99297.34;5103912;28;20036;-82
2023/10/24 08:20:56;;;;;;;3.50;1.10;;;13.30;99.90;;;13.42;76.71;99305.38;5105862;28;20047;-82
2023/10/24 08:23:23;;;;;;;3.00;1.33;;;13.30;99.90;;;13.37;76.06;99304.31;5104486;28;20051;-82
2023/10/24 08:25:53;;;;;;;4.38;1.55;;;13.30;99.90;;;13.43;76.75;99315.06;5105715;28;20111;-82
2023/10/24 08:28:21;;;;;;;3.00;1.60;;;13.30;99.90;;;13.44;77.31;99309.44;5073336;28;20048;-82
2023/10/24 08:30:49;;;;;;;4.60;1.67;;;13.30;99.90;;;13.39;76.26;99307.53;5067699;28;20048;-82
2023/10/24 08:33:20;;;;;;;3.22;1.20;;;13.30;99.90;;;13.40;76.46;99302.97;5084779;28;20059;-82
2023/10/24 08:35:48;;;;;;;4.20;1.23;;;13.30;99.90;;;13.46;77.08;99311.84;5083574;28;20064;-82
2023/10/24 08:38:15;;;;;;;4.65;1.30;;;13.30;99.90;;;13.47;77.22;99314.28;5100130;28;20048;-83
2023/10/24 08:40:43;;;;;;;3.58;1.50;;;13.30;99.90;;;13.49;77.52;99316.69;5104913;28;20479;-82
2023/10/24 08:43:11;;;;;;;5.95;1.50;;;13.40;99.90;;;13.48;77.26;99328.47;5103635;28;20052;-82
2023/10/24 08:45:39;;;;;;;3.17;1.45;;;13.40;99.90;;;13.50;77.13;99329.03;5105134;28;20044;-82
2023/10/24 08:48:07;;;;;;;5.53;1.52;;;13.40;99.90;;;13.57;77.71;99326.94;5105551;28;20044;-82
2023/10/24 08:50:36;;;;;;;8.05;1.58;;;13.40;99.90;;;13.50;76.66;99327.16;5104031;28;20396;-82
2023/10/24 08:53:04;;;;;;;2.58;1.20;;;13.40;99.90;;;13.49;76.56;99330.09;5105687;28;20073;-82
2023/10/24 08:55:32;;;;;;;5.10;1.38;;;13.40;99.90;;;13.49;76.71;99330.91;5121823;28;20454;-82
2023/10/24 08:58:02;;;;;;;5.40;1.60;;;13.40;99.90;;;13.43;76.03;99331.13;5103126;28;20040;-82
2023/10/24 09:00:30;;;;;;;4.15;1.40;;;13.40;99.90;;;13.49;77.42;99333.56;5104800;28;20485;-82
2023/10/24 09:03:00;;;;;;;3.50;1.50;;;13.40;99.90;;;13.52;77.83;99334.94;5105899;28;20078;-81
2023/10/24 09:05:28;;;;;;;3.00;1.30;;;13.40;99.90;;;13.40;75.97;99327.88;5086269;28;20556;-81
2023/10/24 09:07:58;;;;;;;3.10;1.15;;;13.40;99.90;;;13.44;76.34;99325.50;5102706;28;20048;-85
2023/10/24 09:10:26;;;;;;;4.15;1.35;;;13.40;99.90;;;13.47;76.09;99318.81;5105654;28;20127;-82
2023/10/24 09:12:55;;;;;;;3.53;1.30;;;13.50;99.90;;;13.48;75.38;99315.09;5070331;28;20083;-82
2023/10/24 09:15:23;;;;;;;4.63;1.25;;;13.50;99.90;;;13.53;76.34;99309.75;5105406;28;20495;-82
2023/10/24 09:17:50;;;;;;;4.75;1.50;;;13.50;99.90;;;13.58;76.24;99312.47;5103621;28;20131;-82
2023/10/24 09:20:19;;;;;;;4.53;1.38;;;13.60;99.90;;;13.59;76.27;99312.22;5105817;28;20032;-82
2023/10/24 09:22:47;;;;;;;4.38;1.63;;;13.60;99.90;;;13.64;76.22;99316.78;5103570;28;20423;-82
2023/10/24 09:25:22;;;;;;;5.25;1.30;;;13.60;99.90;;;13.68;75.50;99312.53;5103760;28;20072;-83
2023/10/24 09:27:50;;;;;;;3.40;1.70;;;13.70;99.90;;;13.67;77.06;99318.97;5062330;28;20058;-83
2023/10/24 09:30:20;;;;;;;4.13;1.52;;;13.70;99.90;;;13.64;75.76;99319.47;5086379;28;20049;-85
2023/10/24 09:32:48;;;;;;;3.55;1.38;;;13.70;99.90;;;13.69;76.37;99310.66;5077821;28;20400;-84
2023/10/24 09:35:15;;;;;;;2.70;1.15;;;13.70;99.90;;;13.60;74.50;99302.28;5077910;28;20142;-84
2023/10/24 09:37:47;;;;;;;5.63;1.58;;;13.70;99.90;;;13.61;74.17;99312.75;5065032;28;20082;-84
2023/10/24 09:40:16;;;;;;;3.63;1.60;;;13.70;99.90;;;13.65;74.98;99310.34;5097098;28;20134;-85
2023/10/24 09:42:44;;;;;;;4.75;1.27;;;13.70;99.90;;;13.65;74.91;99313.03;5096288;28;20058;-85
2023/10/24 09:45:14;;;;;;;3.50;1.40;;;13.70;99.90;;;13.69;75.52;99303.41;5095967;28;20062;-85
2023/10/24 09:47:42;;;;;;;3.38;1.40;;;13.70;99.90;;;13.72;75.30;99297.53;5102712;28;20044;-82
2023/10/24 09:50:12;;;;;;;4.13;1.65;;;13.70;99.90;;;13.74;74.90;99283.88;5106173;28;20043;-81
2023/10/24 09:52:41;;;;;;;3.08;1.30;;;13.80;99.90;;;13.75;74.78;99288.97;5106358;28;20109;-81
2023/10/24 09:55:10;;;;;;;4.25;1.50;;;13.80;99.90;;;13.80;75.03;99291.66;5107433;28;20067;-81
2023/10/24 09:57:41;;;;;;;2.72;1.30;;;13.80;99.90;;;13.81;74.35;99296.00;5104683;28;20039;-82
2023/10/24 10:00:11;;;;;;;4.55;1.45;;;13.80;99.90;;;13.86;74.54;99287.16;5107500;28;20048;-81
2023/10/24 10:02:41;;;;;;;6.07;1.40;;;13.90;99.90;;;13.86;74.54;99284.47;5104174;28;20079;-82
2023/10/24 10:05:09;;;;;;;4.65;1.80;;;13.90;99.90;;;13.88;75.22;99288.50;5103604;28;20489;-82
2023/10/24 10:07:40;;;;;;;4.93;1.30;;;14.00;99.90;;;13.91;75.37;99288.00;5113176;28;20062;-82
2023/10/24 10:10:11;;;;;;;4.28;1.63;;;14.00;99.90;;;13.97;75.20;99286.13;5105896;28;20044;-82
2023/10/24 10:12:42;;;;;;;4.63;1.80;;;14.00;99.90;;;14.04;75.79;99283.19;5105725;28;20456;-82
2023/10/24 10:15:37;;;;;;;7.83;3.10;;;14.10;99.90;;;14.08;75.16;99284.28;5106066;28;20055;-82
2023/10/24 10:18:17;;;;;;;6.68;3.10;;;14.20;99.90;;;14.08;75.60;99273.56;5104897;28;20611;-82
2023/10/24 10:20:57;;;;;;;5.10;2.50;;;14.20;99.90;;;14.10;74.03;99269.56;5106717;28;20040;-82
2023/10/24 10:23:54;;;;;;;4.95;2.17;;;14.30;99.90;;;14.14;73.62;99267.94;5088977;28;20411;-82